Time;durP1;ratioP1;P1;durP2;ratioP2;P2;SDS_P1;SDS_P2;PMS_P1;PMS_P2;Temp;Humidity;BMP_temperature;BMP_pressure;BME280_temperature;BME280_humidity;BME280_pressure;Samples;Min_cycle;Max_cycle;Signal;HPM_P1;HPM_P2
2022/04/28 00:02:19;;;;;;;12.85;5.78;;;9.70;63.60;;;;;;5076579;28;20180;-87
2022/04/28 00:04:44;;;;;;;8.10;4.88;;;9.70;63.40;;;;;;5076494;28;20172;-87
2022/04/28 00:07:10;;;;;;;8.60;5.70;;;9.60;63.50;;;;;;5082593;28;20624;-87
2022/04/28 00:09:36;;;;;;;12.27;5.57;;;9.60;63.90;;;;;;5060134;28;20176;-87
2022/04/28 00:12:03;;;;;;;16.83;5.10;;;9.50;64.00;;;;;;5059180;28;20184;-87
2022/04/28 00:14:30;;;;;;;12.93;5.30;;;9.40;64.30;;;;;;5056996;28;20191;-87
2022/04/28 00:16:56;;;;;;;13.38;5.68;;;9.50;64.20;;;;;;5057760;28;20188;-87
2022/04/28 00:19:21;;;;;;;7.90;5.20;;;9.40;64.10;;;;;;5067315;28;20173;-86
2022/04/28 00:21:47;;;;;;;9.87;5.33;;;9.50;64.20;;;;;;5047043;28;20815;-88
2022/04/28 00:24:13;;;;;;;10.50;5.20;;;9.30;64.50;;;;;;5058952;28;20172;-88
2022/04/28 00:26:39;;;;;;;11.82;6.70;;;9.40;64.60;;;;;;5056402;28;20728;-88
2022/04/28 00:29:04;;;;;;;11.33;6.07;;;9.40;64.80;;;;;;5056380;28;20212;-86
2022/04/28 00:31:30;;;;;;;7.73;5.47;;;9.30;64.90;;;;;;5074064;28;20720;-87
2022/04/28 00:33:56;;;;;;;7.97;5.33;;;9.30;64.70;;;;;;5055729;28;20225;-87
2022/04/28 00:36:22;;;;;;;10.83;5.27;;;9.30;64.40;;;;;;5055854;28;20176;-87
2022/04/28 00:38:47;;;;;;;9.70;5.70;;;9.30;64.60;;;;;;5055661;28;20176;-87
2022/04/28 00:41:13;;;;;;;13.90;5.67;;;9.20;65.00;;;;;;5055570;28;20531;-86
2022/04/28 00:43:53;;;;;;;15.50;5.90;;;9.20;65.00;;;;;;5050907;28;20416;-86
2022/04/28 00:46:20;;;;;;;10.95;5.57;;;9.20;64.80;;;;;;5072317;28;20600;-84
2022/04/28 00:51:31;;;;;;;10.55;5.93;;;9.10;65.60;;;;;;5074579;28;20603;-86
2022/04/28 00:53:59;;;;;;;15.43;7.20;;;9.10;65.60;;;;;;5053899;28;20180;-86
2022/04/28 00:56:26;;;;;;;7.93;5.63;;;9.10;65.80;;;;;;5059495;28;20168;-86
2022/04/28 00:58:54;;;;;;;11.18;6.30;;;9.10;65.40;;;;;;5058330;28;20238;-86
2022/04/28 01:01:21;;;;;;;7.55;5.82;;;9.10;65.70;;;;;;5076992;28;20203;-87
2022/04/28 01:03:47;;;;;;;16.65;6.22;;;9.10;65.40;;;;;;5053676;28;20735;-86
2022/04/28 01:06:17;;;;;;;12.77;6.53;;;9.10;65.70;;;;;;5055362;28;20174;-86
2022/04/28 01:08:44;;;;;;;9.57;6.38;;;9.00;65.60;;;;;;5073877;28;20521;-86
2022/04/28 01:11:09;;;;;;;13.07;5.72;;;9.00;65.70;;;;;;5055525;28;20219;-86
2022/04/28 01:13:35;;;;;;;11.97;6.20;;;9.00;66.00;;;;;;5055962;28;20181;-87
2022/04/28 01:16:01;;;;;;;10.80;6.67;;;9.00;66.00;;;;;;5073610;28;20177;-87
2022/04/28 01:18:27;;;;;;;16.10;7.00;;;8.90;66.40;;;;;;5056253;28;20183;-87
2022/04/28 01:20:53;;;;;;;12.60;6.60;;;8.90;66.80;;;;;;5057705;28;20677;-87
2022/04/28 01:23:18;;;;;;;9.55;6.20;;;8.80;66.90;;;;;;5077625;28;20172;-87
2022/04/28 01:25:45;;;;;;;12.47;5.57;;;8.90;67.00;;;;;;5044448;28;20213;-86
2022/04/28 01:28:11;;;;;;;10.02;5.90;;;8.80;66.90;;;;;;5060781;28;20455;-86
2022/04/28 01:30:37;;;;;;;8.25;5.10;;;8.90;66.50;;;;;;5061217;28;20197;-86
2022/04/28 01:33:05;;;;;;;11.45;6.57;;;8.80;66.70;;;;;;5062505;28;20180;-86
2022/04/28 01:35:31;;;;;;;14.38;5.82;;;8.80;66.70;;;;;;5060897;28;20183;-87
2022/04/28 01:38:02;;;;;;;13.68;6.78;;;8.80;66.70;;;;;;5064453;28;20267;-87
2022/04/28 01:40:28;;;;;;;11.57;6.65;;;8.80;66.90;;;;;;5059819;28;20208;-87
2022/04/28 01:42:54;;;;;;;15.77;6.20;;;8.70;67.40;;;;;;5061679;28;20187;-87
2022/04/28 01:45:20;;;;;;;8.67;5.97;;;8.70;67.40;;;;;;5042093;28;20189;-87
2022/04/28 01:47:46;;;;;;;13.73;6.07;;;8.70;67.40;;;;;;5067617;28;20200;-87
2022/04/28 01:50:12;;;;;;;11.37;5.80;;;8.70;67.30;;;;;;5067496;28;20197;-85
2022/04/28 01:55:23;;;;;;;15.95;9.13;;;8.60;67.80;;;;;;5077245;28;20199;-87
2022/04/28 01:57:49;;;;;;;11.02;5.88;;;8.60;67.70;;;;;;5058887;28;20177;-87
2022/04/28 02:00:16;;;;;;;12.13;7.30;;;8.60;67.80;;;;;;5058953;28;20295;-87
2022/04/28 02:02:42;;;;;;;10.30;6.90;;;8.60;68.50;;;;;;5076849;28;20173;-87
2022/04/28 02:05:10;;;;;;;12.88;6.82;;;8.70;67.50;;;;;;5059161;28;20185;-87
2022/04/28 02:07:36;;;;;;;16.60;6.97;;;8.60;67.40;;;;;;5059522;28;20234;-87
2022/04/28 02:10:04;;;;;;;12.95;6.60;;;8.60;67.70;;;;;;5059913;28;20353;-87
2022/04/28 02:12:30;;;;;;;14.48;7.10;;;8.60;67.60;;;;;;5058375;28;20222;-87
2022/04/28 02:14:55;;;;;;;9.73;6.87;;;8.60;67.60;;;;;;5058444;28;20180;-87
2022/04/28 02:17:28;;;;;;;9.07;6.10;;;8.50;67.60;;;;;;5056098;28;20451;-87
2022/04/28 02:19:54;;;;;;;14.05;5.40;;;8.50;67.90;;;;;;5053912;28;20846;-86
2022/04/28 02:22:21;;;;;;;9.93;6.53;;;8.50;67.80;;;;;;5077649;28;20172;-85
2022/04/28 02:24:47;;;;;;;10.80;6.80;;;8.50;67.70;;;;;;5061821;28;20180;-86
2022/04/28 02:27:13;;;;;;;11.30;6.20;;;8.50;67.90;;;;;;5061701;28;20196;-86
2022/04/28 02:29:40;;;;;;;10.40;6.15;;;8.50;68.10;;;;;;5061181;28;20273;-86
2022/04/28 02:32:06;;;;;;;17.20;6.75;;;8.50;67.90;;;;;;5060807;28;20230;-86
2022/04/28 02:34:32;;;;;;;13.02;7.40;;;8.40;68.00;;;;;;5059981;28;20191;-86
2022/04/28 02:36:58;;;;;;;11.50;6.63;;;8.40;68.30;;;;;;5041496;28;20184;-86
2022/04/28 02:39:24;;;;;;;12.50;6.20;;;8.40;68.50;;;;;;5058780;28;20176;-87
2022/04/28 02:41:50;;;;;;;16.20;7.60;;;8.40;68.60;;;;;;5057943;28;20554;-87
2022/04/28 02:44:16;;;;;;;13.10;6.13;;;8.40;68.70;;;;;;5050463;28;20173;-87
2022/04/28 02:46:45;;;;;;;12.03;6.43;;;8.40;68.40;;;;;;5076164;28;20449;-87
2022/04/28 02:49:15;;;;;;;15.00;6.75;;;8.50;68.30;;;;;;5092443;28;20466;-87
2022/04/28 02:51:42;;;;;;;12.02;6.05;;;8.50;68.60;;;;;;5056832;28;20196;-86
2022/04/28 02:54:08;;;;;;;14.02;7.65;;;8.40;67.90;;;;;;5057177;28;20172;-87
2022/04/28 02:56:34;;;;;;;13.55;7.10;;;8.40;68.00;;;;;;5057739;28;20264;-87
2022/04/28 02:59:00;;;;;;;11.20;7.03;;;8.30;68.10;;;;;;5064864;28;20208;-86
2022/04/28 03:01:26;;;;;;;14.50;6.82;;;8.30;68.40;;;;;;5069586;28;20197;-87
2022/04/28 03:03:53;;;;;;;15.32;7.30;;;8.40;68.10;;;;;;5058060;28;20180;-87
2022/04/28 03:11:50;;;;;;;15.55;6.93;;;8.40;68.00;;;;;;5075114;28;20195;-87
2022/04/28 03:14:16;;;;;;;12.88;6.32;;;8.30;68.20;;;;;;5057052;28;20271;-87
2022/04/28 03:16:42;;;;;;;12.48;7.20;;;8.30;68.30;;;;;;5057380;28;20191;-87
2022/04/28 03:19:09;;;;;;;17.45;7.90;;;8.30;68.10;;;;;;5057555;28;20674;-87
2022/04/28 03:21:37;;;;;;;14.80;6.60;;;8.20;68.50;;;;;;5057067;28;20200;-87
2022/04/28 03:24:03;;;;;;;13.88;7.10;;;8.20;68.60;;;;;;5070310;28;20660;-87
2022/04/28 03:26:29;;;;;;;10.73;6.13;;;8.30;68.80;;;;;;5057521;28;20177;-87
2022/04/28 03:28:56;;;;;;;11.88;7.35;;;8.20;68.80;;;;;;5074703;28;20204;-87
2022/04/28 03:31:22;;;;;;;19.20;7.90;;;8.20;68.90;;;;;;5056697;28;20212;-86
2022/04/28 03:33:48;;;;;;;10.60;7.15;;;8.20;68.70;;;;;;5056910;28;20201;-86
2022/04/28 03:38:58;;;;;;;19.50;8.25;;;8.20;68.80;;;;;;5055220;28;20169;-87
2022/04/28 03:41:24;;;;;;;15.40;7.70;;;8.20;68.60;;;;;;5053470;28;20587;-88
2022/04/28 03:43:50;;;;;;;16.33;7.10;;;8.20;68.80;;;;;;5060815;28;20173;-87
2022/04/28 03:46:17;;;;;;;15.55;7.43;;;8.10;68.90;;;;;;5058269;28;20188;-87
2022/04/28 03:48:44;;;;;;;12.93;7.15;;;8.10;68.80;;;;;;5059436;28;20698;-87
2022/04/28 03:51:14;;;;;;;10.68;7.68;;;8.10;69.00;;;;;;5059205;28;20219;-87
2022/04/28 03:53:40;;;;;;;15.90;7.53;;;8.10;69.20;;;;;;5080594;28;20181;-86
2022/04/28 03:56:06;;;;;;;17.02;8.45;;;8.10;69.00;;;;;;5057190;28;20185;-87
2022/04/28 03:58:32;;;;;;;10.63;6.77;;;8.10;68.70;;;;;;5061278;28;20177;-86
2022/04/28 04:00:58;;;;;;;18.00;8.10;;;8.10;68.70;;;;;;5044656;28;20220;-86
2022/04/28 04:03:24;;;;;;;13.65;7.25;;;8.10;68.70;;;;;;5055906;28;20205;-87
2022/04/28 04:05:50;;;;;;;15.40;8.57;;;8.10;68.80;;;;;;5036563;28;20173;-87
2022/04/28 04:08:16;;;;;;;11.83;7.50;;;8.00;68.80;;;;;;5074229;28;20202;-87
2022/04/28 04:10:41;;;;;;;20.77;7.40;;;8.00;68.70;;;;;;5057217;28;20458;-87
2022/04/28 04:13:08;;;;;;;15.20;7.40;;;8.00;68.80;;;;;;5076630;28;20410;-87
2022/04/28 04:15:33;;;;;;;11.77;7.43;;;8.00;69.10;;;;;;5057637;28;20434;-87
2022/04/28 04:17:59;;;;;;;19.30;7.90;;;8.00;69.00;;;;;;5057236;28;20275;-86
2022/04/28 04:20:27;;;;;;;12.73;8.15;;;8.00;69.00;;;;;;5057272;28;21024;-87
2022/04/28 04:22:53;;;;;;;13.63;9.05;;;8.00;69.00;;;;;;5054840;28;20190;-86
2022/04/28 04:25:19;;;;;;;9.80;7.57;;;8.00;69.00;;;;;;5064408;28;20181;-84
2022/04/28 04:27:45;;;;;;;14.40;8.02;;;8.00;68.80;;;;;;5066615;28;20250;-86
2022/04/28 04:32:56;;;;;;;14.15;8.18;;;8.00;69.50;;;;;;5074965;28;20390;-87
2022/04/28 04:35:23;;;;;;;13.77;7.57;;;8.00;69.40;;;;;;5055902;28;20606;-87
2022/04/28 04:37:53;;;;;;;13.43;7.82;;;8.00;69.50;;;;;;5056187;28;20224;-87
2022/04/28 04:40:20;;;;;;;17.42;9.32;;;8.00;69.60;;;;;;5055918;28;20197;-87
2022/04/28 04:42:45;;;;;;;17.83;8.20;;;8.00;69.40;;;;;;5055854;28;20295;-87
2022/04/28 04:45:11;;;;;;;13.73;7.63;;;8.20;69.00;;;;;;5039863;28;20216;-87
2022/04/28 04:47:37;;;;;;;13.35;8.82;;;8.10;68.90;;;;;;5056982;28;20209;-87
2022/04/28 04:50:05;;;;;;;15.63;8.30;;;8.20;68.70;;;;;;5067989;28;20197;-87
2022/04/28 04:52:31;;;;;;;10.98;8.13;;;8.30;68.50;;;;;;5057555;28;20183;-87
2022/04/28 04:54:57;;;;;;;15.60;8.23;;;8.30;68.40;;;;;;5067104;28;20181;-86
2022/04/28 04:57:24;;;;;;;18.08;8.85;;;8.20;68.40;;;;;;5064699;28;20180;-86
2022/04/28 04:59:50;;;;;;;16.80;8.65;;;8.20;68.50;;;;;;5063231;28;20291;-86
2022/04/28 05:02:15;;;;;;;19.03;9.13;;;8.30;68.80;;;;;;5061011;28;20668;-87
2022/04/28 05:04:41;;;;;;;16.53;8.80;;;8.30;68.60;;;;;;5052096;28;20936;-87
2022/04/28 05:07:07;;;;;;;16.87;9.70;;;8.30;68.50;;;;;;5057004;28;20183;-86
2022/04/28 05:09:32;;;;;;;20.63;8.53;;;8.30;68.70;;;;;;5042553;28;20212;-86
2022/04/28 05:11:58;;;;;;;21.37;9.60;;;8.40;68.40;;;;;;5076921;28;20622;-86
2022/04/28 05:14:24;;;;;;;11.43;7.67;;;8.40;68.50;;;;;;5059413;28;20864;-86
2022/04/28 05:16:50;;;;;;;15.77;9.20;;;8.40;68.40;;;;;;5077544;28;20180;-86
2022/04/28 05:19:16;;;;;;;13.80;8.60;;;8.40;68.60;;;;;;5064285;28;20180;-86
2022/04/28 05:21:41;;;;;;;24.90;10.03;;;8.40;68.90;;;;;;5064725;28;20230;-86
2022/04/28 05:24:07;;;;;;;20.80;9.47;;;8.60;68.60;;;;;;5060928;28;20203;-85
2022/04/28 05:26:35;;;;;;;19.67;9.33;;;8.60;68.20;;;;;;5062177;28;20655;-85
2022/04/28 05:29:01;;;;;;;27.17;9.73;;;8.80;67.90;;;;;;5079643;28;20505;-86
2022/04/28 05:31:26;;;;;;;18.20;9.20;;;8.90;67.70;;;;;;5043744;28;20830;-86
2022/04/28 05:33:57;;;;;;;18.77;10.63;;;9.00;67.40;;;;;;5058847;28;20415;-86
2022/04/28 05:36:24;;;;;;;16.95;9.05;;;9.20;67.30;;;;;;5077128;28;20660;-86
2022/04/28 05:38:50;;;;;;;15.27;8.85;;;9.50;66.20;;;;;;5058813;28;20185;-86
2022/04/28 05:41:15;;;;;;;16.40;7.40;;;10.00;64.70;;;;;;5077479;28;20192;-87
2022/04/28 05:46:26;;;;;;;17.83;8.65;;;10.80;61.90;;;;;;5068981;28;20199;-86
2022/04/28 05:48:52;;;;;;;12.70;8.57;;;11.10;60.60;;;;;;5055039;28;20636;-86
2022/04/28 05:51:18;;;;;;;16.33;8.48;;;11.40;59.40;;;;;;5053442;28;20219;-85
2022/04/28 05:53:44;;;;;;;14.97;8.57;;;11.50;58.80;;;;;;5052818;28;20245;-85
2022/04/28 05:56:10;;;;;;;13.10;8.20;;;11.50;58.50;;;;;;5063097;28;20284;-85
2022/04/28 05:58:35;;;;;;;11.23;7.83;;;11.80;58.00;;;;;;5047462;28;20227;-85
2022/04/28 06:01:02;;;;;;;9.97;8.30;;;12.00;57.20;;;;;;5054950;28;20289;-85
2022/04/28 06:03:28;;;;;;;17.77;8.35;;;12.10;56.50;;;;;;5068387;28;20427;-85
2022/04/28 06:05:54;;;;;;;16.93;9.17;;;12.30;56.00;;;;;;5056147;28;20181;-86
2022/04/28 06:08:19;;;;;;;15.97;8.60;;;12.40;55.70;;;;;;5076747;28;20204;-85
2022/04/28 06:10:45;;;;;;;17.00;8.07;;;12.30;55.40;;;;;;5077682;28;20454;-85
2022/04/28 06:13:11;;;;;;;18.63;8.38;;;12.40;55.30;;;;;;5079856;28;20178;-86
2022/04/28 06:15:37;;;;;;;14.80;8.07;;;12.60;55.00;;;;;;5062180;28;20173;-86
2022/04/28 06:18:03;;;;;;;12.13;7.93;;;12.80;54.60;;;;;;5080365;28;20267;-86
2022/04/28 06:20:29;;;;;;;13.17;8.50;;;13.00;53.80;;;;;;5077485;28;20273;-85
2022/04/28 06:22:55;;;;;;;16.17;8.53;;;13.20;53.30;;;;;;5064164;28;20493;-86
2022/04/28 06:25:23;;;;;;;14.07;8.23;;;13.20;52.70;;;;;;5058408;28;20426;-86
2022/04/28 06:27:49;;;;;;;12.10;8.50;;;13.30;52.30;;;;;;5066733;28;20465;-86
2022/04/28 06:30:15;;;;;;;18.60;8.25;;;13.20;52.30;;;;;;5077515;28;20226;-86
2022/04/28 06:32:41;;;;;;;13.13;8.35;;;13.20;51.70;;;;;;5082754;28;20172;-86
2022/04/28 06:35:16;;;;;;;12.77;7.77;;;13.20;51.80;;;;;;5081673;28;20257;-86
2022/04/28 06:37:45;;;;;;;12.25;8.93;;;13.40;51.70;;;;;;5102851;28;20733;-86
2022/04/28 06:40:12;;;;;;;16.42;8.40;;;13.30;51.40;;;;;;5085842;28;20199;-85
2022/04/28 06:42:42;;;;;;;14.43;9.20;;;13.40;51.60;;;;;;5107293;28;20206;-85
2022/04/28 06:45:09;;;;;;;17.48;8.95;;;13.40;51.40;;;;;;5075997;28;20211;-86
2022/04/28 06:47:35;;;;;;;13.57;8.32;;;13.40;51.60;;;;;;5069715;28;20277;-84
2022/04/28 06:50:00;;;;;;;13.03;8.67;;;13.60;51.40;;;;;;5067310;28;20246;-85
2022/04/28 06:52:26;;;;;;;15.40;8.97;;;13.70;50.70;;;;;;5067598;28;20421;-85
2022/04/28 06:54:52;;;;;;;14.83;8.07;;;13.90;50.10;;;;;;5071788;28;20173;-85
2022/04/28 06:57:19;;;;;;;14.87;8.50;;;14.00;49.10;;;;;;5072538;28;20415;-85
2022/04/28 06:59:44;;;;;;;11.52;8.05;;;13.90;49.10;;;;;;5069945;28;20231;-86
2022/04/28 07:02:10;;;;;;;18.00;9.03;;;13.80;49.80;;;;;;5090436;28;20248;-85
2022/04/28 07:04:37;;;;;;;15.47;8.90;;;13.80;49.60;;;;;;5089855;28;20176;-85
2022/04/28 07:07:03;;;;;;;13.90;9.00;;;13.60;49.70;;;;;;5070505;28;20268;-84
2022/04/28 07:09:29;;;;;;;15.93;8.38;;;13.30;50.40;;;;;;5057041;28;20212;-85
2022/04/28 07:11:54;;;;;;;13.50;7.57;;;13.10;51.30;;;;;;5082656;28;20238;-86
2022/04/28 07:14:20;;;;;;;14.40;8.90;;;13.00;51.90;;;;;;5083233;28;20708;-85
2022/04/28 07:16:46;;;;;;;15.37;8.50;;;13.10;52.50;;;;;;5068782;28;20183;-85
2022/04/28 07:19:11;;;;;;;16.73;9.03;;;12.90;52.30;;;;;;5064372;28;20423;-85
2022/04/28 07:21:37;;;;;;;12.90;9.70;;;12.80;52.90;;;;;;5064197;28;20203;-87
2022/04/28 07:24:03;;;;;;;16.13;9.70;;;12.80;52.80;;;;;;5063149;28;20215;-86
2022/04/28 07:26:29;;;;;;;15.15;8.75;;;12.70;53.10;;;;;;5081290;28;20203;-85
2022/04/28 07:28:55;;;;;;;11.20;8.50;;;12.70;53.10;;;;;;5062938;28;20224;-86
2022/04/28 07:31:21;;;;;;;21.70;9.20;;;12.70;53.30;;;;;;5062853;28;20800;-85
2022/04/28 07:33:47;;;;;;;16.40;9.57;;;12.70;53.30;;;;;;5063128;28;20283;-85
2022/04/28 07:36:12;;;;;;;18.25;8.13;;;12.70;53.10;;;;;;5080205;28;20257;-86
2022/04/28 07:38:39;;;;;;;15.13;10.43;;;12.60;53.50;;;;;;5063874;28;20644;-86
2022/04/28 07:41:05;;;;;;;15.15;9.27;;;12.60;53.50;;;;;;5081871;28;20192;-85
2022/04/28 07:43:31;;;;;;;16.97;10.43;;;12.60;53.90;;;;;;5062836;28;20184;-86
2022/04/28 07:45:56;;;;;;;13.87;9.10;;;12.50;54.20;;;;;;5063450;28;20229;-85
2022/04/28 07:48:23;;;;;;;18.97;9.50;;;12.50;54.50;;;;;;5063285;28;20196;-86
2022/04/28 07:50:50;;;;;;;16.13;10.07;;;12.50;54.70;;;;;;5057319;28;20439;-85
2022/04/28 07:53:16;;;;;;;15.77;9.77;;;12.60;53.90;;;;;;5079316;28;20176;-85
2022/04/28 07:55:42;;;;;;;12.85;8.65;;;12.70;53.80;;;;;;5057255;28;20177;-85
2022/04/28 07:58:08;;;;;;;14.53;9.53;;;12.80;53.60;;;;;;5076892;28;20208;-86
2022/04/28 08:00:34;;;;;;;13.87;8.63;;;12.80;53.50;;;;;;5060072;28;20200;-86
2022/04/28 08:03:00;;;;;;;13.15;8.68;;;12.80;53.40;;;;;;5060381;28;20427;-86
2022/04/28 08:05:26;;;;;;;13.07;8.20;;;12.70;53.60;;;;;;5059667;28;20211;-86
2022/04/28 08:07:51;;;;;;;19.50;10.70;;;12.70;53.50;;;;;;5044018;28;20469;-86
2022/04/28 08:10:17;;;;;;;19.07;10.50;;;12.80;53.50;;;;;;5077275;28;21085;-86
2022/04/28 08:12:43;;;;;;;19.10;10.57;;;12.90;54.00;;;;;;5064551;28;20203;-84
2022/04/28 08:15:10;;;;;;;27.90;10.27;;;12.80;54.40;;;;;;5072773;28;20176;-85
2022/04/28 08:17:36;;;;;;;21.45;10.95;;;12.90;54.50;;;;;;5070370;28;20544;-85
2022/04/28 08:20:02;;;;;;;16.50;9.82;;;12.80;54.70;;;;;;5064677;28;20261;-85
2022/04/28 08:22:28;;;;;;;19.65;11.05;;;12.80;54.70;;;;;;5062956;28;20172;-85
2022/04/28 08:24:54;;;;;;;17.03;10.17;;;12.70;55.30;;;;;;5082891;28;20184;-85
2022/04/28 08:27:24;;;;;;;19.03;9.30;;;12.80;55.00;;;;;;5069271;28;20204;-85
2022/04/28 08:29:50;;;;;;;19.20;9.85;;;12.80;54.50;;;;;;5064389;28;20470;-85
2022/04/28 08:32:16;;;;;;;14.90;9.77;;;12.90;54.30;;;;;;5066884;28;20558;-85
2022/04/28 08:34:42;;;;;;;20.33;9.53;;;13.00;53.80;;;;;;5066850;28;20168;-85
2022/04/28 08:37:08;;;;;;;13.90;8.48;;;13.10;53.70;;;;;;5069732;28;20430;-84
2022/04/28 08:39:34;;;;;;;23.13;11.33;;;13.20;53.30;;;;;;5083522;28;20233;-85
2022/04/28 08:42:00;;;;;;;15.33;11.07;;;13.20;53.30;;;;;;5065239;28;20431;-85
2022/04/28 08:44:27;;;;;;;18.33;11.07;;;13.40;52.60;;;;;;5065822;28;20245;-85
2022/04/28 08:46:54;;;;;;;14.88;9.20;;;13.50;52.50;;;;;;5084404;28;20188;-85
2022/04/28 08:49:24;;;;;;;16.92;10.80;;;13.50;52.60;;;;;;5083758;28;20660;-85
2022/04/28 08:51:54;;;;;;;18.67;10.32;;;13.60;52.60;;;;;;5079439;28;20196;-85
2022/04/28 08:54:21;;;;;;;21.40;10.45;;;13.50;52.20;;;;;;5072012;28;20184;-85
2022/04/28 08:56:49;;;;;;;19.20;10.40;;;13.60;52.10;;;;;;5085726;28;20176;-86
2022/04/28 08:59:15;;;;;;;12.50;9.70;;;13.50;51.70;;;;;;5085025;28;20176;-86
2022/04/28 09:01:42;;;;;;;14.77;9.90;;;13.50;51.90;;;;;;5103591;28;20231;-85
2022/04/28 09:04:10;;;;;;;16.85;11.15;;;13.50;52.30;;;;;;5102769;28;20414;-86
2022/04/28 09:06:37;;;;;;;16.23;11.65;;;13.80;51.40;;;;;;5104090;28;20204;-85
2022/04/28 09:09:06;;;;;;;12.18;9.35;;;13.90;50.90;;;;;;5085054;28;20200;-85
2022/04/28 09:11:37;;;;;;;20.17;11.10;;;13.90;50.80;;;;;;5104442;28;20222;-86
2022/04/28 09:14:11;;;;;;;12.93;10.07;;;13.90;50.80;;;;;;5068749;28;20168;-86
2022/04/28 09:16:48;;;;;;;19.50;11.00;;;13.90;50.90;;;;;;5087114;28;20187;-86
2022/04/28 09:19:19;;;;;;;17.73;10.20;;;13.70;51.30;;;;;;5084338;28;20198;-86
2022/04/28 09:21:46;;;;;;;15.55;10.10;;;13.90;50.90;;;;;;5084637;28;20263;-85
2022/04/28 09:24:13;;;;;;;20.02;10.05;;;14.10;50.20;;;;;;5085838;28;20616;-85
2022/04/28 09:26:40;;;;;;;20.50;10.90;;;14.20;49.80;;;;;;5084562;28;20180;-85
2022/04/28 09:29:12;;;;;;;16.77;11.05;;;14.20;50.10;;;;;;5085581;28;20213;-85
2022/04/28 09:31:39;;;;;;;16.70;11.65;;;14.20;50.30;;;;;;5105339;28;20211;-85
2022/04/28 09:34:16;;;;;;;16.30;10.90;;;14.20;50.40;;;;;;5071643;28;20195;-85
2022/04/28 09:36:44;;;;;;;12.88;10.18;;;14.20;50.50;;;;;;5068479;28;20271;-85
2022/04/28 09:39:13;;;;;;;16.63;11.40;;;14.30;50.50;;;;;;5069486;28;20203;-85
2022/04/28 09:44:24;;;;;;;12.07;10.60;;;14.40;49.70;;;;;;5082080;28;20210;-85
2022/04/28 09:46:51;;;;;;;14.43;10.77;;;14.40;49.30;;;;;;5062961;28;20187;-83
2022/04/28 09:49:19;;;;;;;20.45;9.95;;;14.40;49.60;;;;;;5064465;28;20219;-84
2022/04/28 09:51:46;;;;;;;15.75;10.70;;;14.50;49.80;;;;;;5064809;28;20172;-84
2022/04/28 09:54:17;;;;;;;13.15;10.38;;;14.40;50.00;;;;;;5083321;28;20169;-83
2022/04/28 09:56:44;;;;;;;22.38;11.50;;;14.60;49.90;;;;;;5065820;28;20176;-84
2022/04/28 09:59:13;;;;;;;14.57;10.20;;;14.40;50.10;;;;;;5066040;28;20176;-83
2022/04/28 10:01:52;;;;;;;16.55;10.65;;;14.50;49.60;;;;;;5063992;28;20223;-85
2022/04/28 10:04:18;;;;;;;16.45;11.00;;;14.50;50.20;;;;;;5063883;28;20196;-83
2022/04/28 10:06:44;;;;;;;16.73;11.03;;;14.70;49.80;;;;;;5063470;28;20226;-84
2022/04/28 10:09:12;;;;;;;17.30;12.25;;;14.90;49.10;;;;;;5063918;28;20193;-84
2022/04/28 10:11:38;;;;;;;15.07;10.30;;;15.00;48.30;;;;;;5062465;28;20555;-85
2022/04/28 10:14:06;;;;;;;17.20;11.35;;;15.10;48.50;;;;;;5063084;28;20176;-84
2022/04/28 10:16:33;;;;;;;14.55;10.93;;;15.10;48.30;;;;;;5062383;28;20293;-84
2022/04/28 10:19:05;;;;;;;14.18;11.80;;;15.20;48.20;;;;;;5062997;28;20187;-84
2022/04/28 10:21:40;;;;;;;20.00;12.70;;;15.20;48.30;;;;;;5081651;28;20474;-84
2022/04/28 10:33:00;;;;;;;14.38;10.65;;;15.60;48.00;;;;;;5080381;28;20591;-84
2022/04/28 10:35:49;;;;;;;17.63;11.55;;;15.60;47.50;;;;;;5061731;28;20176;-84
2022/04/28 10:38:34;;;;;;;21.23;11.70;;;15.60;47.60;;;;;;5032680;28;20188;-83
2022/04/28 10:41:03;;;;;;;15.98;11.38;;;15.60;47.90;;;;;;5062213;28;20570;-84
2022/04/28 10:43:32;;;;;;;22.75;12.68;;;15.60;47.40;;;;;;5067831;28;20188;-85
2022/04/28 10:46:24;;;;;;;17.00;12.27;;;15.80;47.00;;;;;;5057059;28;20195;-84
2022/04/28 10:48:55;;;;;;;18.65;12.55;;;15.80;46.90;;;;;;5061511;28;20204;-86
2022/04/28 10:51:22;;;;;;;16.88;12.25;;;15.80;46.40;;;;;;5061266;28;20219;-84
2022/04/28 10:53:59;;;;;;;18.38;11.57;;;15.90;46.50;;;;;;5060654;28;20237;-84
2022/04/28 10:56:54;;;;;;;17.90;12.35;;;15.90;46.50;;;;;;5062064;28;20184;-86
2022/04/28 10:59:37;;;;;;;20.85;13.40;;;15.80;46.70;;;;;;5079136;28;20164;-84
2022/04/28 11:02:15;;;;;;;16.73;12.25;;;16.00;46.50;;;;;;5062039;28;20210;-85
2022/04/28 11:04:49;;;;;;;20.85;11.70;;;16.10;46.60;;;;;;5060929;28;20182;-83
2022/04/28 11:07:27;;;;;;;17.45;12.50;;;16.00;46.60;;;;;;5061015;28;20172;-85
2022/04/28 11:10:01;;;;;;;16.80;11.48;;;16.20;46.90;;;;;;5076105;28;20230;-84
2022/04/28 11:12:37;;;;;;;21.02;13.10;;;16.20;47.10;;;;;;5059743;28;20176;-86
2022/04/28 11:15:08;;;;;;;21.50;14.55;;;16.20;47.10;;;;;;5058430;28;20282;-85
2022/04/28 11:17:38;;;;;;;24.85;14.32;;;16.10;46.90;;;;;;5060331;28;20180;-85
2022/04/28 11:20:09;;;;;;;16.67;12.13;;;15.90;47.20;;;;;;5044299;28;20216;-85
2022/04/28 11:22:35;;;;;;;16.85;13.55;;;16.00;47.20;;;;;;5058945;28;20188;-85
2022/04/28 11:25:13;;;;;;;16.33;12.03;;;16.30;46.30;;;;;;5076759;28;20628;-85
2022/04/28 11:27:39;;;;;;;16.98;12.48;;;16.50;45.80;;;;;;5058965;28;20276;-86
2022/04/28 11:30:06;;;;;;;20.73;13.07;;;16.50;45.70;;;;;;5056935;28;20200;-86
2022/04/28 11:32:32;;;;;;;17.27;13.00;;;16.50;45.40;;;;;;5059162;28;20269;-85
2022/04/28 11:34:58;;;;;;;16.77;12.70;;;16.60;45.50;;;;;;5069581;28;20641;-85
2022/04/28 11:37:26;;;;;;;17.60;13.77;;;16.60;45.50;;;;;;5076516;28;20721;-86
2022/04/28 11:39:53;;;;;;;18.83;15.57;;;16.70;45.10;;;;;;5056357;28;20216;-85
2022/04/28 11:42:21;;;;;;;18.60;12.32;;;16.80;44.60;;;;;;5072966;28;20259;-86
2022/04/28 11:44:52;;;;;;;19.40;14.45;;;16.80;44.50;;;;;;5051808;28;20181;-85
2022/04/28 11:47:18;;;;;;;19.30;13.50;;;16.90;44.70;;;;;;5075338;28;20161;-85
2022/04/28 11:49:44;;;;;;;24.23;13.80;;;16.80;44.50;;;;;;5059520;28;20239;-85
2022/04/28 11:52:20;;;;;;;18.77;14.18;;;16.70;44.80;;;;;;5071345;28;20169;-85
2022/04/28 11:54:51;;;;;;;15.35;13.30;;;16.80;44.50;;;;;;5063285;28;20180;-86
2022/04/28 11:57:18;;;;;;;21.25;13.68;;;16.80;44.40;;;;;;5056210;28;20198;-86
2022/04/28 11:59:44;;;;;;;20.02;14.93;;;16.90;45.00;;;;;;5055658;28;20201;-86
2022/04/28 12:02:30;;;;;;;20.00;14.30;;;16.90;44.70;;;;;;5055437;28;20549;-85
2022/04/28 12:04:57;;;;;;;20.08;14.27;;;17.00;44.20;;;;;;5074111;28;20172;-85
2022/04/28 12:07:37;;;;;;;19.27;15.75;;;17.10;44.20;;;;;;5073787;28;20303;-86
2022/04/28 12:15:34;;;;;;;26.35;17.52;;;17.20;43.80;;;;;;5074146;28;20168;-86
2022/04/28 12:20:58;;;;;;;24.58;17.45;;;16.90;43.80;;;;;;5073772;28;20199;-85
2022/04/28 12:23:38;;;;;;;25.15;17.63;;;17.10;43.20;;;;;;5055432;28;20179;-86
2022/04/28 12:26:06;;;;;;;21.80;14.88;;;17.30;42.70;;;;;;5055586;28;20180;-86
2022/04/28 12:28:38;;;;;;;26.13;17.80;;;17.40;42.40;;;;;;5073805;28;20604;-84
2022/04/28 12:31:05;;;;;;;33.58;22.67;;;17.30;42.80;;;;;;5061548;28;20313;-85
2022/04/28 12:33:35;;;;;;;61.08;29.88;;;17.40;42.30;;;;;;5074382;28;20172;-85
2022/04/28 12:36:07;;;;;;;42.03;28.90;;;17.40;42.90;;;;;;5076254;28;20184;-85
2022/04/28 12:38:35;;;;;;;20.08;15.98;;;17.20;43.30;;;;;;5085313;28;20179;-86
2022/04/28 12:41:17;;;;;;;19.00;13.93;;;17.50;42.20;;;;;;5075824;28;20192;-86
2022/04/28 12:43:49;;;;;;;18.35;14.18;;;17.50;41.20;;;;;;5059188;28;20176;-85
2022/04/28 12:46:36;;;;;;;22.02;16.63;;;17.50;41.20;;;;;;5073929;28;20740;-85
2022/04/28 12:49:08;;;;;;;30.05;20.65;;;17.70;41.10;;;;;;5056167;28;20204;-86
2022/04/28 12:51:47;;;;;;;19.45;14.73;;;17.70;41.10;;;;;;5057109;28;20230;-86
2022/04/28 12:54:18;;;;;;;22.67;16.73;;;17.70;41.00;;;;;;5065008;28;20161;-85
2022/04/28 12:56:47;;;;;;;26.88;17.85;;;17.70;41.00;;;;;;5039747;28;20173;-86
2022/04/28 12:59:15;;;;;;;25.08;15.70;;;17.70;40.80;;;;;;5035499;28;20189;-86
2022/04/28 13:01:42;;;;;;;20.75;15.32;;;17.70;40.80;;;;;;5053017;28;20347;-84
2022/04/28 13:04:16;;;;;;;24.55;16.65;;;17.70;41.00;;;;;;5053271;28;20184;-85
2022/04/28 13:06:44;;;;;;;25.17;18.00;;;17.70;41.10;;;;;;5035385;28;20180;-86
2022/04/28 13:09:10;;;;;;;22.88;15.57;;;17.80;41.00;;;;;;5035739;28;20204;-86
2022/04/28 13:11:39;;;;;;;20.65;14.13;;;17.80;40.90;;;;;;5035183;28;20209;-85
2022/04/28 13:14:08;;;;;;;20.75;14.02;;;17.60;41.40;;;;;;5035305;28;20180;-86
2022/04/28 13:16:36;;;;;;;17.15;13.32;;;17.80;40.90;;;;;;5036344;28;20571;-86
2022/04/28 13:19:03;;;;;;;16.40;13.65;;;17.80;41.30;;;;;;5057016;28;20257;-86
2022/04/28 13:21:28;;;;;;;18.85;11.32;;;17.40;42.70;;;;;;5039342;28;20205;-86